EDW84 LSZH-FACT
Flight info
| Callsign | EDW84 |
|---|---|
| Flight time | N/A |
| Altitude | 34000 |
| Route | VEBIT T53 GERSA DCT SOSON DCT ODINA DCT EVROG/N0479F350 DCT BATOX DCT ABDAB/N0483F360 UL44 TUC UP161 EBA UG362 BARKA/N0494F370 UM2 DJA UB730 DIR UG727 ININA/N0487F390 UG727 BZ DCT KSA UT943 IMVEX/N0483F400 UT943 UNLOK/N0484F390 UT943 OMATA/N0480F410 UT943 VEDRY/N0482F400 UN185 OKLOK UQ23 DUMDO DCT ERDAS ERDAS1C |
| Aircraft | A359/H-SABDE2E3GHIJ2J3J4J5M1P2RWXYZ/LB1D1 |
Departure
| Time | 2026-02-21 22:47 |
|---|---|
| Airport | Zürich Airport (LSZH) |
Arrival
| Time | N/A |
|---|---|
| Airport | Cape Town International Airport (FACT) |
| Time | Latitude | Longitude | Altitude | Speed | Heading |
|---|---|---|---|---|---|
| 2026-02-21 21:54 | 47.46048 | 8.55528 | 1413 ft | 0 kts | 6° |
| 2026-02-21 22:38 | 47.46055 | 8.55529 | 1414 ft | 1 kts | 6° |
| 2026-02-21 22:38 | 47.46044 | 8.55528 | 1406 ft | 3 kts | 6° |
| 2026-02-21 22:38 | 47.46024 | 8.55525 | 1413 ft | 3 kts | 6° |
| 2026-02-21 22:38 | 47.46004 | 8.55521 | 1412 ft | 3 kts | 11° |
| 2026-02-21 22:39 | 47.45987 | 8.55516 | 1412 ft | 3 kts | 21° |
| 2026-02-21 22:39 | 47.45973 | 8.55502 | 1412 ft | 3 kts | 66° |
| 2026-02-21 22:39 | 47.45968 | 8.55475 | 1415 ft | 3 kts | 90° |
| 2026-02-21 22:39 | 47.45969 | 8.55445 | 1413 ft | 3 kts | 96° |
| 2026-02-21 22:40 | 47.45970 | 8.55437 | 1412 ft | 2 kts | 96° |
| 2026-02-21 22:40 | 47.45970 | 8.55460 | 1410 ft | 1 kts | 96° |
| 2026-02-21 22:40 | 47.45971 | 8.55462 | 1410 ft | 0 kts | 96° |
| 2026-02-21 22:42 | 47.45970 | 8.55466 | 1410 ft | 2 kts | 98° |
| 2026-02-21 22:43 | 47.45963 | 8.55507 | 1412 ft | 7 kts | 105° |
| 2026-02-21 22:43 | 47.45957 | 8.55599 | 1407 ft | 11 kts | 93° |
| 2026-02-21 22:43 | 47.45954 | 8.55672 | 1408 ft | 11 kts | 96° |
| 2026-02-21 22:43 | 47.45947 | 8.55765 | 1413 ft | 11 kts | 96° |
| 2026-02-21 22:44 | 47.45939 | 8.55867 | 1415 ft | 11 kts | 95° |
| 2026-02-21 22:44 | 47.45961 | 8.55974 | 1419 ft | 13 kts | 66° |
| 2026-02-21 22:44 | 47.45966 | 8.56114 | 1419 ft | 15 kts | 95° |
| 2026-02-21 22:44 | 47.45962 | 8.56263 | 1419 ft | 13 kts | 77° |
| 2026-02-21 22:45 | 47.46035 | 8.56325 | 1425 ft | 14 kts | 14° |
| 2026-02-21 22:45 | 47.46138 | 8.56349 | 1421 ft | 16 kts | 6° |
| 2026-02-21 22:45 | 47.46235 | 8.56329 | 1420 ft | 9 kts | 298° |
| 2026-02-21 22:45 | 47.46275 | 8.56248 | 1419 ft | 11 kts | 313° |
| 2026-02-21 22:46 | 47.46290 | 8.56227 | 1419 ft | 0 kts | 316° |
| 2026-02-21 22:46 | 47.46301 | 8.56211 | 1419 ft | 17 kts | 316° |
| 2026-02-21 22:46 | 47.46541 | 8.55879 | 1410 ft | 75 kts | 317° |
| 2026-02-21 22:47 | 47.47047 | 8.55195 | 1403 ft | 122 kts | 318° |
| 2026-02-21 22:47 | 47.47766 | 8.54192 | 1455 ft | 154 kts | 314° |
| 2026-02-21 22:47 | 47.48567 | 8.53153 | 1840 ft | 154 kts | 316° |
| 2026-02-21 22:47 | 47.49390 | 8.52128 | 2222 ft | 156 kts | 314° |
| 2026-02-21 22:48 | 47.50222 | 8.51066 | 2636 ft | 157 kts | 314° |
| 2026-02-21 22:48 | 47.50935 | 8.49921 | 3189 ft | 146 kts | 300° |
| 2026-02-21 22:48 | 47.51403 | 8.48633 | 3613 ft | 140 kts | 286° |
| 2026-02-21 22:48 | 47.51622 | 8.47254 | 3987 ft | 137 kts | 274° |
| 2026-02-21 22:49 | 47.51679 | 8.45847 | 4312 ft | 138 kts | 271° |
| 2026-02-21 22:49 | 47.51710 | 8.44407 | 4585 ft | 145 kts | 271° |
| 2026-02-21 22:49 | 47.51741 | 8.42844 | 4759 ft | 159 kts | 271° |
| 2026-02-21 22:49 | 47.51707 | 8.41132 | 4939 ft | 175 kts | 262° |
| 2026-02-21 22:50 | 47.51221 | 8.39380 | 5043 ft | 199 kts | 236° |
| 2026-02-21 22:50 | 47.50052 | 8.38135 | 5197 ft | 227 kts | 206° |
| 2026-02-21 22:50 | 47.48460 | 8.37503 | 5434 ft | 246 kts | 197° |
| 2026-02-21 22:50 | 47.46743 | 8.37001 | 5853 ft | 256 kts | 195° |
| 2026-02-21 22:51 | 47.43190 | 8.35936 | 6950 ft | 264 kts | 196° |
| 2026-02-21 22:51 | 47.41375 | 8.35364 | 7446 ft | 270 kts | 196° |
| 2026-02-21 22:51 | 47.39488 | 8.34992 | 7905 ft | 280 kts | 183° |
| 2026-02-21 22:52 | 47.37543 | 8.35538 | 8412 ft | 290 kts | 165° |
| 2026-02-21 22:52 | 47.35648 | 8.36642 | 8939 ft | 296 kts | 157° |
| 2026-02-21 22:52 | 47.33793 | 8.38014 | 9461 ft | 301 kts | 153° |
| 2026-02-21 22:52 | 47.31940 | 8.39514 | 10015 ft | 306 kts | 151° |
| 2026-02-21 22:53 | 47.30067 | 8.41052 | 10495 ft | 310 kts | 151° |
| 2026-02-21 22:53 | 47.28137 | 8.42606 | 10770 ft | 323 kts | 152° |
| 2026-02-21 22:53 | 47.26109 | 8.44191 | 10985 ft | 337 kts | 153° |
| 2026-02-21 22:53 | 47.23987 | 8.45809 | 11210 ft | 350 kts | 153° |
| 2026-02-21 22:54 | 47.21780 | 8.47468 | 11431 ft | 363 kts | 153° |
| 2026-02-21 22:54 | 47.19489 | 8.49169 | 11662 ft | 375 kts | 153° |
| 2026-02-21 22:54 | 47.17074 | 8.50723 | 11856 ft | 386 kts | 163° |
| 2026-02-21 22:54 | 47.14435 | 8.51630 | 12170 ft | 392 kts | 171° |
| 2026-02-21 22:55 | 47.11723 | 8.52233 | 12597 ft | 396 kts | 174° |
| 2026-02-21 22:55 | 47.08975 | 8.52674 | 13027 ft | 399 kts | 176° |
| 2026-02-21 22:55 | 47.06194 | 8.53041 | 13474 ft | 403 kts | 177° |
| 2026-02-21 22:55 | 47.03390 | 8.53389 | 13881 ft | 407 kts | 177° |
| 2026-02-21 22:56 | 47.00558 | 8.53752 | 14302 ft | 409 kts | 176° |
| 2026-02-21 22:56 | 46.97707 | 8.54128 | 14647 ft | 413 kts | 176° |
| 2026-02-21 22:56 | 46.94831 | 8.54524 | 15003 ft | 417 kts | 176° |
| 2026-02-21 22:56 | 46.91941 | 8.54933 | 15419 ft | 419 kts | 176° |
| 2026-02-21 22:57 | 46.89031 | 8.55354 | 15794 ft | 422 kts | 176° |
| 2026-02-21 22:57 | 46.86097 | 8.55778 | 16180 ft | 425 kts | 176° |
| 2026-02-21 22:57 | 46.83138 | 8.56203 | 16547 ft | 430 kts | 176° |
| 2026-02-21 22:57 | 46.80154 | 8.56630 | 16936 ft | 431 kts | 176° |
| 2026-02-21 22:58 | 46.77164 | 8.57057 | 17297 ft | 435 kts | 176° |
| 2026-02-21 22:58 | 46.74116 | 8.57492 | 17394 ft | 444 kts | 176° |
| 2026-02-21 22:58 | 46.71030 | 8.57935 | 17698 ft | 447 kts | 176° |
| 2026-02-21 22:58 | 46.67931 | 8.58383 | 18145 ft | 448 kts | 176° |
| 2026-02-21 22:59 | 46.64820 | 8.58828 | 18548 ft | 451 kts | 176° |
| 2026-02-21 22:59 | 46.61689 | 8.59271 | 18892 ft | 454 kts | 176° |
| 2026-02-21 22:59 | 46.58541 | 8.59720 | 19266 ft | 455 kts | 176° |
| 2026-02-21 22:59 | 46.55426 | 8.60164 | 19622 ft | 457 kts | 176° |
| 2026-02-21 23:00 | 46.52213 | 8.60619 | 19946 ft | 459 kts | 176° |
| 2026-02-21 23:00 | 46.49023 | 8.61070 | 20298 ft | 462 kts | 176° |
| 2026-02-21 23:00 | 46.45865 | 8.61515 | 20622 ft | 463 kts | 176° |
| 2026-02-21 23:00 | 46.42648 | 8.61970 | 20930 ft | 466 kts | 176° |
| 2026-02-21 23:01 | 46.39416 | 8.62425 | 21211 ft | 467 kts | 176° |
| 2026-02-21 23:01 | 46.36182 | 8.62881 | 21557 ft | 468 kts | 176° |
| 2026-02-21 23:01 | 46.32930 | 8.63339 | 21924 ft | 471 kts | 176° |
| 2026-02-21 23:01 | 46.29661 | 8.63796 | 22281 ft | 473 kts | 176° |
| 2026-02-21 23:02 | 46.26377 | 8.64255 | 22605 ft | 475 kts | 176° |
| 2026-02-21 23:02 | 46.23068 | 8.64718 | 22922 ft | 477 kts | 175° |
| 2026-02-21 23:02 | 46.19773 | 8.65183 | 23304 ft | 475 kts | 175° |
| 2026-02-21 23:02 | 46.16479 | 8.65646 | 23592 ft | 477 kts | 176° |
| 2026-02-21 23:03 | 46.13167 | 8.66115 | 23878 ft | 479 kts | 174° |
| 2026-02-21 23:03 | 46.09872 | 8.66927 | 24126 ft | 482 kts | 167° |
| 2026-02-21 23:03 | 46.06605 | 8.68097 | 24360 ft | 485 kts | 165° |
| 2026-02-21 23:03 | 46.03351 | 8.69393 | 24584 ft | 487 kts | 164° |
| 2026-02-21 23:04 | 46.00096 | 8.70760 | 24845 ft | 488 kts | 163° |
| 2026-02-21 23:04 | 45.96840 | 8.72160 | 25111 ft | 489 kts | 163° |
| 2026-02-21 23:04 | 45.93571 | 8.73571 | 25328 ft | 493 kts | 163° |
| 2026-02-21 23:04 | 45.90264 | 8.74991 | 25537 ft | 497 kts | 163° |
| 2026-02-21 23:05 | 45.86946 | 8.76405 | 25832 ft | 499 kts | 163° |
| 2026-02-21 23:05 | 45.83614 | 8.77813 | 26116 ft | 500 kts | 163° |
| 2026-02-21 23:05 | 45.80274 | 8.79218 | 26359 ft | 501 kts | 163° |
| 2026-02-21 23:05 | 45.76918 | 8.80625 | 26626 ft | 503 kts | 163° |
| 2026-02-21 23:06 | 45.73551 | 8.82033 | 26882 ft | 505 kts | 163° |
| 2026-02-21 23:06 | 45.70170 | 8.83446 | 27131 ft | 507 kts | 163° |
| 2026-02-21 23:06 | 45.66774 | 8.84863 | 27382 ft | 510 kts | 163° |
| 2026-02-21 23:06 | 45.63361 | 8.86286 | 27645 ft | 512 kts | 163° |
| 2026-02-21 23:07 | 45.59938 | 8.87711 | 27913 ft | 514 kts | 163° |
| 2026-02-21 23:07 | 45.56502 | 8.89141 | 28177 ft | 515 kts | 163° |
| 2026-02-21 23:07 | 45.53051 | 8.90574 | 28418 ft | 518 kts | 163° |
| 2026-02-21 23:07 | 45.49585 | 8.92013 | 28679 ft | 520 kts | 163° |
| 2026-02-21 23:08 | 45.46108 | 8.93454 | 28931 ft | 522 kts | 163° |
| 2026-02-21 23:08 | 45.42662 | 8.94880 | 29174 ft | 524 kts | 163° |
| 2026-02-21 23:08 | 45.39155 | 8.96329 | 29427 ft | 526 kts | 163° |
| 2026-02-21 23:08 | 45.35628 | 8.97785 | 29639 ft | 529 kts | 163° |
| 2026-02-21 23:09 | 45.32091 | 8.99244 | 29904 ft | 530 kts | 163° |
| 2026-02-21 23:09 | 45.28539 | 9.00707 | 30118 ft | 532 kts | 163° |
| 2026-02-21 23:09 | 45.24973 | 9.02173 | 30327 ft | 534 kts | 163° |
| 2026-02-21 23:09 | 45.21395 | 9.03640 | 30520 ft | 536 kts | 163° |
| 2026-02-21 23:10 | 45.17806 | 9.05106 | 30684 ft | 538 kts | 163° |
| 2026-02-21 23:10 | 45.14208 | 9.06576 | 30872 ft | 539 kts | 163° |
| 2026-02-21 23:10 | 45.10596 | 9.08052 | 31041 ft | 541 kts | 163° |
| 2026-02-21 23:10 | 45.06977 | 9.09526 | 31225 ft | 542 kts | 163° |
| 2026-02-21 23:11 | 45.03345 | 9.10991 | 31386 ft | 544 kts | 164° |
| 2026-02-21 23:11 | 44.99703 | 9.12449 | 31667 ft | 544 kts | 164° |
| 2026-02-21 23:11 | 44.96051 | 9.13906 | 31846 ft | 545 kts | 165° |
| 2026-02-21 23:11 | 44.92399 | 9.15332 | 32063 ft | 545 kts | 165° |
| 2026-02-21 23:12 | 44.88741 | 9.16757 | 32288 ft | 545 kts | 165° |
| 2026-02-21 23:12 | 44.85093 | 9.18189 | 32482 ft | 546 kts | 165° |
| 2026-02-21 23:12 | 44.81428 | 9.19648 | 32590 ft | 548 kts | 163° |
| 2026-02-21 23:12 | 44.77777 | 9.21175 | 32867 ft | 546 kts | 162° |
| 2026-02-21 23:13 | 44.74140 | 9.22721 | 33163 ft | 545 kts | 162° |
| 2026-02-21 23:13 | 44.70508 | 9.24253 | 33408 ft | 545 kts | 162° |
| 2026-02-21 23:13 | 44.66870 | 9.25763 | 33653 ft | 545 kts | 163° |
| 2026-02-21 23:13 | 44.63229 | 9.27250 | 33901 ft | 544 kts | 163° |
| 2026-02-21 23:14 | 44.59592 | 9.28720 | 34079 ft | 544 kts | 163° |
| 2026-02-21 23:14 | 44.55948 | 9.30182 | 34265 ft | 545 kts | 163° |
| 2026-02-21 23:14 | 44.52301 | 9.31636 | 34434 ft | 545 kts | 163° |
| 2026-02-21 23:14 | 44.48652 | 9.33092 | 34663 ft | 545 kts | 163° |
| 2026-02-21 23:15 | 44.45005 | 9.34547 | 34859 ft | 544 kts | 163° |
| 2026-02-21 23:15 | 44.41415 | 9.35976 | 35046 ft | 544 kts | 163° |
| 2026-02-21 23:15 | 44.37770 | 9.37421 | 35197 ft | 545 kts | 163° |
| 2026-02-21 23:15 | 44.34117 | 9.38868 | 35311 ft | 547 kts | 163° |
| 2026-02-21 23:16 | 44.26758 | 9.41790 | 35324 ft | 551 kts | 163° |
| 2026-02-21 23:16 | 44.19382 | 9.44715 | 35318 ft | 551 kts | 163° |
| 2026-02-21 23:17 | 44.12006 | 9.47634 | 35320 ft | 551 kts | 163° |
| 2026-02-21 23:17 | 44.04616 | 9.50552 | 35317 ft | 552 kts | 163° |
| 2026-02-21 23:18 | 43.97218 | 9.53454 | 35319 ft | 552 kts | 163° |
| 2026-02-21 23:18 | 43.89827 | 9.56345 | 35319 ft | 551 kts | 163° |
| 2026-02-21 23:19 | 43.82437 | 9.59218 | 35319 ft | 551 kts | 165° |
| 2026-02-21 23:19 | 43.75030 | 9.61979 | 35319 ft | 552 kts | 166° |
| 2026-02-21 23:20 | 43.67628 | 9.64785 | 35319 ft | 551 kts | 162° |
| 2026-02-21 23:20 | 43.60267 | 9.67777 | 35321 ft | 551 kts | 162° |
| 2026-02-21 23:21 | 43.52896 | 9.70725 | 35321 ft | 552 kts | 163° |
| 2026-02-21 23:21 | 43.45507 | 9.73603 | 35319 ft | 552 kts | 163° |
| 2026-02-21 23:22 | 43.38115 | 9.76447 | 35322 ft | 552 kts | 163° |
| 2026-02-21 23:22 | 43.30724 | 9.79281 | 35321 ft | 551 kts | 163° |
| 2026-02-21 23:23 | 43.23301 | 9.81606 | 35325 ft | 552 kts | 171° |
| 2026-02-21 23:23 | 43.15644 | 9.83077 | 35316 ft | 552 kts | 172° |
| 2026-02-21 23:24 | 43.08061 | 9.84363 | 35323 ft | 553 kts | 172° |
| 2026-02-21 23:24 | 43.00415 | 9.85647 | 35320 ft | 554 kts | 172° |
| 2026-02-21 23:25 | 42.92766 | 9.86950 | 35317 ft | 554 kts | 172° |
| 2026-02-21 23:25 | 42.85114 | 9.88263 | 35316 ft | 554 kts | 172° |
| 2026-02-21 23:26 | 42.77465 | 9.89575 | 35315 ft | 554 kts | 172° |
| 2026-02-21 23:26 | 42.69816 | 9.90883 | 35316 ft | 554 kts | 172° |
| 2026-02-21 23:27 | 42.62166 | 9.92187 | 35317 ft | 554 kts | 172° |
| 2026-02-21 23:27 | 42.54519 | 9.93486 | 35317 ft | 554 kts | 172° |
| 2026-02-21 23:28 | 42.46872 | 9.94783 | 35318 ft | 554 kts | 172° |
| 2026-02-21 23:28 | 42.39226 | 9.96077 | 35319 ft | 554 kts | 172° |
| 2026-02-21 23:29 | 42.31581 | 9.97367 | 35319 ft | 554 kts | 172° |
| 2026-02-21 23:29 | 42.23942 | 9.98653 | 35320 ft | 554 kts | 172° |
| 2026-02-21 23:30 | 42.16292 | 9.99937 | 35316 ft | 554 kts | 172° |
| 2026-02-21 23:30 | 42.08640 | 10.01219 | 35320 ft | 554 kts | 172° |
| 2026-02-21 23:31 | 42.00991 | 10.02497 | 35317 ft | 554 kts | 172° |
| 2026-02-21 23:31 | 41.94632 | 10.03558 | 35315 ft | 554 kts | 172° |
| 2026-02-21 23:32 | 41.86981 | 10.04830 | 35317 ft | 554 kts | 172° |
| 2026-02-21 23:32 | 41.79339 | 10.06099 | 35317 ft | 554 kts | 172° |
| 2026-02-21 23:33 | 41.71690 | 10.07365 | 35320 ft | 554 kts | 172° |
| 2026-02-21 23:33 | 41.64041 | 10.08629 | 35319 ft | 554 kts | 172° |
| 2026-02-21 23:34 | 41.56396 | 10.09888 | 35319 ft | 554 kts | 172° |
| 2026-02-21 23:34 | 41.48749 | 10.11145 | 35319 ft | 553 kts | 172° |
| 2026-02-21 23:35 | 41.41110 | 10.12398 | 35322 ft | 553 kts | 172° |
| 2026-02-21 23:35 | 41.33475 | 10.13647 | 35319 ft | 553 kts | 172° |
| 2026-02-21 23:36 | 41.25891 | 10.14885 | 35319 ft | 552 kts | 172° |
| 2026-02-21 23:36 | 41.18263 | 10.16119 | 35322 ft | 552 kts | 172° |
| 2026-02-21 23:37 | 41.10623 | 10.17260 | 35312 ft | 552 kts | 173° |
| 2026-02-21 23:37 | 41.02992 | 10.18370 | 35323 ft | 552 kts | 173° |
| 2026-02-21 23:38 | 40.95366 | 10.19488 | 35325 ft | 551 kts | 173° |
| 2026-02-21 23:38 | 40.87740 | 10.20613 | 35343 ft | 551 kts | 173° |
| 2026-02-21 23:39 | 40.80110 | 10.21739 | 35329 ft | 552 kts | 173° |
| 2026-02-21 23:39 | 40.76296 | 10.22301 | 35554 ft | 550 kts | 173° |
| 2026-02-21 23:39 | 40.72502 | 10.22859 | 35843 ft | 547 kts | 173° |
| 2026-02-21 23:40 | 40.68726 | 10.23413 | 36052 ft | 546 kts | 173° |
| 2026-02-21 23:40 | 40.64951 | 10.23968 | 36210 ft | 545 kts | 173° |
| 2026-02-21 23:40 | 40.61188 | 10.24519 | 36392 ft | 544 kts | 173° |
| 2026-02-21 23:40 | 40.57424 | 10.25070 | 36529 ft | 544 kts | 173° |
| 2026-02-21 23:41 | 40.53665 | 10.25620 | 36664 ft | 544 kts | 173° |
| 2026-02-21 23:41 | 40.49904 | 10.26169 | 36791 ft | 544 kts | 173° |
| 2026-02-21 23:41 | 40.46138 | 10.26719 | 36918 ft | 544 kts | 173° |
| 2026-02-21 23:41 | 40.42377 | 10.27267 | 37050 ft | 543 kts | 173° |
| 2026-02-21 23:42 | 40.38624 | 10.27814 | 37198 ft | 543 kts | 173° |
| 2026-02-21 23:42 | 40.27337 | 10.29453 | 37323 ft | 547 kts | 173° |
| 2026-02-21 23:43 | 40.19754 | 10.30552 | 37322 ft | 549 kts | 173° |
| 2026-02-21 23:43 | 40.12165 | 10.31648 | 37322 ft | 548 kts | 173° |
| 2026-02-21 23:44 | 40.04577 | 10.32742 | 37322 ft | 548 kts | 173° |
| 2026-02-21 23:44 | 39.96996 | 10.33833 | 37322 ft | 548 kts | 173° |
| 2026-02-21 23:45 | 39.89408 | 10.34922 | 37322 ft | 549 kts | 174° |